createdAt,value
2023-04-09T00:01:55.147Z,2.2
2023-04-09T00:07:01.023Z,1.6
2023-04-09T00:12:07.102Z,1.1
2023-04-09T00:17:13.216Z,1.1
2023-04-09T00:27:25.451Z,1.1
2023-04-09T00:32:30.595Z,1.1
2023-04-09T00:37:36.693Z,1.5
2023-04-09T00:42:42.819Z,1.6
2023-04-09T00:47:48.934Z,1.4
2023-04-09T00:52:55.042Z,1.1
2023-04-09T00:58:01.167Z,0.7
2023-04-09T01:03:07.285Z,0.1
2023-04-09T01:08:13.384Z,-0.1
2023-04-09T01:13:19.502Z,-0.1
2023-04-09T01:18:25.622Z,0.4
2023-04-09T01:23:31.732Z,0.2
2023-04-09T01:28:37.860Z,0.1
2023-04-09T01:33:43.981Z,-0.2
2023-04-09T01:38:49.093Z,-0.3
2023-04-09T01:43:55.218Z,-0.2
2023-04-09T01:49:01.312Z,-0.2
2023-04-09T01:54:07.453Z,0
2023-04-09T01:59:13.567Z,0
2023-04-09T02:04:19.703Z,0.2
2023-04-09T02:09:25.801Z,0
2023-04-09T02:14:31.923Z,-0.3
2023-04-09T02:19:38.037Z,0.2
2023-04-09T02:24:44.159Z,0.1
2023-04-09T02:29:50.306Z,0.3
2023-04-09T02:34:56.420Z,-0.2
2023-04-09T02:40:02.562Z,-0.2
2023-04-09T02:45:07.657Z,-0.5
2023-04-09T02:50:13.777Z,-0.4
2023-04-09T02:55:19.898Z,0
2023-04-09T03:00:26.025Z,-0.6
2023-04-09T03:05:32.142Z,-1
2023-04-09T03:10:38.249Z,-1.1
2023-04-09T03:15:44.374Z,-1.1
2023-04-09T03:20:50.478Z,-0.7
2023-04-09T03:25:56.594Z,-0.7
2023-04-09T03:31:02.721Z,-0.7
2023-04-09T03:36:08.862Z,-0.2
2023-04-09T03:41:14.957Z,-0.4
2023-04-09T03:46:21.103Z,-0.9
2023-04-09T03:51:26.196Z,-1.3
2023-04-09T03:56:32.316Z,-1.2
2023-04-09T04:01:38.445Z,-0.7
2023-04-09T04:06:44.556Z,-0.6
2023-04-09T04:11:50.661Z,-0.6
2023-04-09T04:16:56.778Z,-0.9
2023-04-09T04:22:02.893Z,-1.2
2023-04-09T04:27:09.037Z,-1.2
2023-04-09T04:32:15.116Z,-1
2023-04-09T04:37:21.232Z,-0.4
2023-04-09T04:42:27.371Z,-0.6
2023-04-09T04:47:33.474Z,-0.7
2023-04-09T04:52:39.582Z,-0.9
2023-04-09T04:57:44.729Z,-0.8
2023-04-09T05:02:50.861Z,-0.4
2023-04-09T05:07:56.954Z,-0.2
2023-04-09T05:13:03.080Z,0
2023-04-09T05:18:09.188Z,0.9
2023-04-09T05:23:15.288Z,1.2
2023-04-09T05:28:21.433Z,3
2023-04-09T05:33:27.534Z,4.9
2023-04-09T05:38:33.643Z,6.1
2023-04-09T05:43:39.765Z,7
2023-04-09T05:48:45.881Z,7
2023-04-09T05:53:52.009Z,6.5
2023-04-09T05:58:58.121Z,7.2
2023-04-09T06:04:03.234Z,8.3
2023-04-09T06:09:09.358Z,9.1
2023-04-09T06:14:15.482Z,10.2
2023-04-09T06:19:21.604Z,10.8
2023-04-09T06:24:27.722Z,11.1
2023-04-09T06:29:33.832Z,10.6
2023-04-09T06:34:39.965Z,10.1
2023-04-09T06:39:46.062Z,10.5
2023-04-09T06:44:52.196Z,10.5
2023-04-09T06:49:58.306Z,11.2
2023-04-09T06:55:04.463Z,12.1
2023-04-09T07:00:10.539Z,12.9
2023-04-09T07:05:16.647Z,12.3
2023-04-09T07:10:21.929Z,13.9
2023-04-09T07:15:28.062Z,14.9
2023-04-09T07:20:34.005Z,14.4
2023-04-09T07:25:40.100Z,14.4
2023-04-09T07:30:46.310Z,14.5
2023-04-09T07:35:52.333Z,13.9
2023-04-09T07:40:58.448Z,13.3
2023-04-09T07:46:04.554Z,14.6
2023-04-09T07:51:10.710Z,14.7
2023-04-09T07:56:16.996Z,15.3
2023-04-09T08:01:23.058Z,12.8
2023-04-09T08:06:29.134Z,11.8
2023-04-09T08:11:35.337Z,14.1
2023-04-09T08:16:40.417Z,14.7
2023-04-09T08:21:46.513Z,13.2
2023-04-09T08:26:52.516Z,11.9
2023-04-09T08:31:58.799Z,12.4
2023-04-09T08:37:04.865Z,13.7
2023-04-09T08:42:10.875Z,13.2
2023-04-09T08:47:16.908Z,13.5
2023-04-09T08:52:23.031Z,14.9
2023-04-09T08:57:29.248Z,14.2
2023-04-09T09:02:35.275Z,12.4
2023-04-09T09:07:41.507Z,14
2023-04-09T09:12:47.634Z,14.3
2023-04-09T09:17:53.733Z,12
2023-04-09T09:22:58.805Z,12.7
2023-04-09T09:28:04.972Z,12.3
2023-04-09T09:33:11.061Z,13.1
2023-04-09T09:38:17.134Z,13.3
2023-04-09T09:43:23.192Z,13.2
2023-04-09T09:48:29.235Z,13.9
2023-04-09T09:53:35.324Z,12.6
2023-04-09T09:58:41.444Z,12.3
2023-04-09T10:03:47.566Z,12.2
2023-04-09T10:08:53.660Z,13
2023-04-09T10:13:59.769Z,13.6
2023-04-09T10:19:05.869Z,13.9
2023-04-09T10:24:11.994Z,13.6
2023-04-09T10:29:17.110Z,14.4
2023-04-09T10:34:23.256Z,14.5
2023-04-09T10:39:29.342Z,14.4
2023-04-09T10:44:35.452Z,15.3
2023-04-09T10:49:41.552Z,14.5
2023-04-09T10:54:47.671Z,13.7
2023-04-09T10:59:53.791Z,14
2023-04-09T11:04:59.907Z,14.8
2023-04-09T11:10:05.992Z,15.6
2023-04-09T11:15:12.115Z,15.1
2023-04-09T11:20:18.266Z,13.8
2023-04-09T11:25:24.378Z,13.6
2023-04-09T11:30:30.468Z,15.1
2023-04-09T11:35:35.607Z,15.2
2023-04-09T11:40:41.724Z,15.1
2023-04-09T11:45:47.876Z,16
2023-04-09T11:50:53.952Z,15
2023-04-09T11:56:00.069Z,15.5
2023-04-09T12:01:06.179Z,15
2023-04-09T12:06:12.267Z,15
2023-04-09T12:11:18.388Z,15.4
2023-04-09T12:16:24.508Z,15.2
2023-04-09T12:21:30.620Z,16
2023-04-09T12:26:36.718Z,14.7
2023-04-09T12:31:42.846Z,15.2
2023-04-09T12:36:48.940Z,16.6
2023-04-09T12:41:54.072Z,16.3
2023-04-09T12:47:00.175Z,16.2
2023-04-09T12:52:06.287Z,16.4
2023-04-09T12:57:12.415Z,16.6
2023-04-09T13:02:18.506Z,14.5
2023-04-09T13:07:24.655Z,14
2023-04-09T13:12:30.728Z,13.9
2023-04-09T13:17:36.864Z,13.6
2023-04-09T13:22:42.950Z,13.6
2023-04-09T13:27:49.071Z,13.7
2023-04-09T13:32:55.171Z,13.7
2023-04-09T13:38:01.294Z,13.6
2023-04-09T13:43:07.403Z,13.6
2023-04-09T13:48:12.525Z,13.9
2023-04-09T13:53:18.633Z,13.9
2023-04-09T13:58:24.789Z,14.2
2023-04-09T14:03:30.856Z,14.5
2023-04-09T14:08:36.965Z,13.9
2023-04-09T14:13:42.108Z,13.3
2023-04-09T14:18:48.194Z,13.6
2023-04-09T14:23:54.310Z,13.5
2023-04-09T14:29:00.436Z,13.7
2023-04-09T14:34:06.540Z,14.4
2023-04-09T14:39:12.643Z,14.9
2023-04-09T14:44:18.755Z,14.9
2023-04-09T14:49:24.884Z,14.8
2023-04-09T14:54:30.983Z,14.4
2023-04-09T14:59:37.090Z,14.7
2023-04-09T15:04:43.223Z,14.8
2023-04-09T15:09:49.339Z,14.9
2023-04-09T15:14:55.454Z,15
2023-04-09T15:20:00.562Z,14.8
2023-04-09T15:25:06.675Z,14.9
2023-04-09T15:30:12.786Z,14.7
2023-04-09T15:35:18.896Z,15.1
2023-04-09T15:40:25.006Z,15.3
2023-04-09T15:45:31.110Z,14.8
2023-04-09T15:50:37.228Z,14.6
2023-04-09T15:55:43.357Z,14.3
2023-04-09T16:00:49.464Z,14.4
2023-04-09T16:05:55.599Z,14.2
2023-04-09T16:11:01.692Z,14.1
2023-04-09T16:16:07.810Z,14
2023-04-09T16:21:13.915Z,13.9
2023-04-09T16:26:19.035Z,13.7
2023-04-09T16:31:25.168Z,13.6
2023-04-09T16:36:31.262Z,13.4
2023-04-09T16:41:37.394Z,13.3
2023-04-09T16:46:43.487Z,13.2
2023-04-09T16:51:49.601Z,13
2023-04-09T16:56:55.712Z,12.7
2023-04-09T17:02:01.822Z,12.4
2023-04-09T17:07:07.931Z,12.2
2023-04-09T17:12:14.038Z,12.1
2023-04-09T17:17:20.158Z,11.7
2023-04-09T17:22:26.271Z,11.4
2023-04-09T17:27:32.375Z,11.2
2023-04-09T17:32:37.485Z,10.9
2023-04-09T17:37:43.623Z,10.7
2023-04-09T17:42:49.701Z,10.5
2023-04-09T17:47:55.810Z,10.1
2023-04-09T17:53:01.936Z,9.6
2023-04-09T17:58:08.051Z,9.3
2023-04-09T18:03:14.165Z,8.6
2023-04-09T18:08:20.269Z,7.9
2023-04-09T18:13:26.397Z,7.3
2023-04-09T18:18:32.510Z,7.1
2023-04-09T18:23:38.600Z,6.7
2023-04-09T18:28:44.767Z,6.3
2023-04-09T18:33:50.857Z,6.1
2023-04-09T18:38:55.970Z,5.9
2023-04-09T18:44:02.056Z,5.9
2023-04-09T18:49:08.220Z,6.1
2023-04-09T18:54:14.299Z,5.9
2023-04-09T18:59:20.405Z,5.7
2023-04-09T19:04:26.519Z,6
2023-04-09T19:09:32.636Z,6.3
2023-04-09T19:14:38.769Z,6.4
2023-04-09T19:19:44.953Z,6
2023-04-09T19:24:50.986Z,5.4
2023-04-09T19:29:57.110Z,5.2
2023-04-09T19:35:03.234Z,5
2023-04-09T19:40:09.348Z,5
2023-04-09T19:45:14.470Z,4.9
2023-04-09T19:50:20.599Z,4.9
2023-04-09T19:55:26.733Z,4.8
2023-04-09T20:00:32.820Z,4.7
2023-04-09T20:05:38.935Z,4.5
2023-04-09T20:10:45.068Z,4.3
2023-04-09T20:15:51.185Z,4.3
2023-04-09T20:20:57.309Z,4.5
2023-04-09T20:26:03.478Z,4.9
2023-04-09T20:31:09.538Z,4.7
2023-04-09T20:36:15.648Z,4.5
2023-04-09T20:41:21.770Z,4.3
2023-04-09T20:46:27.893Z,4
2023-04-09T20:51:33.029Z,4.4
2023-04-09T20:56:39.145Z,5
2023-04-09T21:01:45.275Z,5
2023-04-09T21:06:51.393Z,4.7
2023-04-09T21:11:57.533Z,4.5
2023-04-09T21:17:03.651Z,4.7
2023-04-09T21:22:09.821Z,4.8
2023-04-09T21:27:15.906Z,5.1
2023-04-09T21:32:22.023Z,5.3
2023-04-09T21:37:28.133Z,5.1
2023-04-09T21:42:34.256Z,5.1
2023-04-09T21:47:40.399Z,5.6
2023-04-09T21:52:46.511Z,6.1
2023-04-09T21:57:51.664Z,6.1
2023-04-09T22:02:57.772Z,6.3
2023-04-09T22:08:03.896Z,6.5
2023-04-09T22:13:10.017Z,6.5
2023-04-09T22:18:16.113Z,6.5
2023-04-09T22:23:22.218Z,6.6
2023-04-09T22:28:28.338Z,6.4
2023-04-09T22:33:34.498Z,5.9
2023-04-09T22:38:40.560Z,5.9
2023-04-09T22:43:46.674Z,6
2023-04-09T22:48:52.836Z,5.8
2023-04-09T22:53:58.910Z,6.7
2023-04-09T22:59:05.075Z,6.8
2023-04-09T23:04:10.179Z,6.8
2023-04-09T23:09:16.293Z,6.7
2023-04-09T23:14:22.394Z,6.8
2023-04-09T23:19:28.514Z,6.5
2023-04-09T23:24:34.624Z,6.6
2023-04-09T23:29:40.741Z,6.4
2023-04-09T23:34:46.862Z,6.4
2023-04-09T23:39:53.025Z,6.3
2023-04-09T23:44:59.090Z,6.3
2023-04-09T23:50:05.209Z,5.9
2023-04-09T23:55:11.435Z,5.8
